Time;durP1;ratioP1;P1;durP2;ratioP2;P2;SDS_P1;SDS_P2;PMS_P1;PMS_P2;Temp;Humidity;BMP_temperature;BMP_pressure;BME280_temperature;BME280_humidity;BME280_pressure;Samples;Min_cycle;Max_cycle;Signal;HPM_P1;HPM_P2
2023/09/18 00:00:59;;;;;;;10.20;7.23;;;;;;;;;;4938245;29;20195;-73
2023/09/18 00:04:03;;;;;;;8.13;7.23;;;;;;;;;;4938572;29;20176;-73
2023/09/18 00:07:07;;;;;;;8.37;6.43;;;;;;;;;;4938491;29;20192;-73
2023/09/18 00:10:12;;;;;;;6.40;5.80;;;;;;;;;;4937606;29;20526;-73
2023/09/18 00:13:16;;;;;;;7.43;5.97;;;;;;;;;;4938048;29;20212;-73
2023/09/18 00:16:20;;;;;;;8.67;6.40;;;;;;;;;;4937126;29;20188;-73
2023/09/18 00:19:25;;;;;;;8.00;6.50;;;;;;;;;;4937196;29;20184;-73
2023/09/18 00:22:29;;;;;;;7.33;6.27;;;;;;;;;;4937035;29;20695;-73
2023/09/18 00:25:33;;;;;;;7.13;6.43;;;;;;;;;;4937328;29;20624;-73
2023/09/18 00:28:37;;;;;;;7.73;6.47;;;;;;;;;;4938130;29;20184;-73
2023/09/18 00:31:41;;;;;;;7.33;6.07;;;;;;;;;;4926141;29;20580;-73
2023/09/18 00:34:45;;;;;;;8.13;6.47;;;;;;;;;;4936897;29;20184;-73
2023/09/18 00:37:49;;;;;;;6.80;6.20;;;;;;;;;;4937969;29;20525;-73
2023/09/18 00:40:54;;;;;;;7.30;6.50;;;;;;;;;;4926253;29;20632;-73
2023/09/18 00:43:58;;;;;;;7.30;6.60;;;;;;;;;;4937004;29;20180;-72
2023/09/18 00:47:02;;;;;;;7.30;6.60;;;;;;;;;;4926032;29;20188;-72
2023/09/18 00:50:10;;;;;;;7.43;6.40;;;;;;;;;;4925713;29;20188;-72
2023/09/18 00:53:19;;;;;;;11.07;7.67;;;;;;;;;;4937606;29;20184;-72
2023/09/18 00:56:24;;;;;;;8.27;7.37;;;;;;;;;;4936899;29;20180;-73
2023/09/18 00:59:28;;;;;;;8.73;7.00;;;;;;;;;;4936738;29;20188;-73
2023/09/18 01:02:32;;;;;;;7.90;7.10;;;;;;;;;;4936396;29;20231;-73
2023/09/18 01:05:36;;;;;;;8.97;6.87;;;;;;;;;;4936864;29;20184;-73
2023/09/18 01:08:40;;;;;;;7.80;7.00;;;;;;;;;;4937088;29;20184;-73
2023/09/18 01:12:02;;;;;;;6.97;6.27;;;;;;;;;;4936246;29;20228;-73
2023/09/18 01:15:18;;;;;;;6.77;6.13;;;;;;;;;;4936483;29;20188;-73
2023/09/18 01:18:23;;;;;;;7.23;6.50;;;;;;;;;;4936481;29;20645;-73
2023/09/18 01:21:26;;;;;;;7.80;6.93;;;;;;;;;;4936203;29;20227;-73
2023/09/18 01:24:33;;;;;;;8.63;7.07;;;;;;;;;;4936800;29;20181;-73
2023/09/18 01:27:37;;;;;;;8.07;7.27;;;;;;;;;;4935128;29;20188;-73
2023/09/18 01:30:42;;;;;;;9.00;7.37;;;;;;;;;;4936134;29;20180;-73
2023/09/18 01:33:48;;;;;;;9.40;6.87;;;;;;;;;;4925329;29;20184;-73
2023/09/18 01:36:53;;;;;;;10.10;6.97;;;;;;;;;;4936860;29;20188;-73
2023/09/18 01:39:59;;;;;;;8.10;6.67;;;;;;;;;;4936259;29;20193;-73
2023/09/18 01:43:03;;;;;;;7.33;6.57;;;;;;;;;;4935454;29;20232;-73
2023/09/18 01:46:07;;;;;;;8.97;7.23;;;;;;;;;;4936119;29;20184;-73
2023/09/18 01:49:11;;;;;;;7.57;6.17;;;;;;;;;;4935875;29;20530;-73
2023/09/18 01:52:15;;;;;;;8.70;7.13;;;;;;;;;;4935693;29;20220;-73
2023/09/18 01:55:20;;;;;;;11.37;6.87;;;;;;;;;;4924819;29;20188;-73
2023/09/18 01:58:24;;;;;;;6.50;5.83;;;;;;;;;;4936847;29;20193;-73
2023/09/18 02:01:29;;;;;;;8.13;6.40;;;;;;;;;;4924537;29;20220;-73
2023/09/18 02:04:33;;;;;;;8.07;6.90;;;;;;;;;;4924639;29;20173;-73
2023/09/18 02:07:37;;;;;;;9.10;6.50;;;;;;;;;;4935306;29;20188;-73
2023/09/18 02:10:41;;;;;;;9.57;6.80;;;;;;;;;;4924605;29;20188;-73
2023/09/18 02:13:45;;;;;;;7.30;6.57;;;;;;;;;;4935053;29;20203;-73
2023/09/18 02:16:49;;;;;;;8.17;6.23;;;;;;;;;;4935619;29;20184;-73
2023/09/18 02:19:54;;;;;;;7.90;7.10;;;;;;;;;;4935103;29;20184;-73
2023/09/18 02:22:58;;;;;;;8.63;7.03;;;;;;;;;;4935199;29;20232;-73
2023/09/18 02:26:02;;;;;;;10.67;7.23;;;;;;;;;;4935082;29;20192;-73
2023/09/18 02:29:14;;;;;;;11.43;6.97;;;;;;;;;;4936445;29;20205;-73
2023/09/18 02:32:19;;;;;;;7.97;6.87;;;;;;;;;;4935461;29;20350;-73
2023/09/18 02:35:23;;;;;;;7.60;6.80;;;;;;;;;;4934972;29;20636;-73
2023/09/18 02:38:28;;;;;;;8.23;6.60;;;;;;;;;;4937803;29;20188;-73
2023/09/18 02:41:32;;;;;;;8.20;7.40;;;;;;;;;;4927889;29;20691;-73
2023/09/18 02:44:36;;;;;;;7.70;6.93;;;;;;;;;;4939884;29;20180;-73
2023/09/18 02:47:41;;;;;;;9.10;7.30;;;;;;;;;;4939274;29;20188;-73
2023/09/18 02:50:45;;;;;;;7.57;6.77;;;;;;;;;;4927979;29;20184;-73
2023/09/18 02:53:50;;;;;;;9.67;7.27;;;;;;;;;;4938996;29;20185;-73
2023/09/18 02:56:54;;;;;;;9.20;7.30;;;;;;;;;;4928241;29;20188;-73
2023/09/18 02:59:58;;;;;;;9.23;7.47;;;;;;;;;;4939598;29;20192;-73
2023/09/18 03:03:03;;;;;;;10.33;9.07;;;;;;;;;;4927749;29;20228;-73
2023/09/18 03:06:07;;;;;;;9.73;8.23;;;;;;;;;;4938900;29;20201;-73
2023/09/18 03:09:11;;;;;;;10.27;8.93;;;;;;;;;;4939715;29;20188;-73
2023/09/18 03:12:16;;;;;;;9.07;8.10;;;;;;;;;;4927349;29;20227;-73
2023/09/18 03:15:20;;;;;;;10.80;8.97;;;;;;;;;;4927848;29;20180;-73
2023/09/18 03:18:24;;;;;;;8.70;7.83;;;;;;;;;;4938372;29;20201;-73
2023/09/18 03:21:28;;;;;;;12.37;8.57;;;;;;;;;;4938180;29;20227;-73
2023/09/18 03:24:32;;;;;;;9.73;8.20;;;;;;;;;;4938916;29;20211;-73
2023/09/18 03:27:36;;;;;;;10.63;7.53;;;;;;;;;;4938273;29;20184;-73
2023/09/18 03:30:41;;;;;;;8.63;7.83;;;;;;;;;;4938409;29;20191;-73
2023/09/18 03:33:46;;;;;;;9.83;8.17;;;;;;;;;;4938159;29;20181;-73
2023/09/18 03:36:50;;;;;;;11.33;7.50;;;;;;;;;;4938729;29;20180;-74
2023/09/18 03:39:54;;;;;;;10.13;8.73;;;;;;;;;;4937825;29;20180;-74
2023/09/18 03:42:59;;;;;;;9.37;8.30;;;;;;;;;;4937609;29;20231;-73
2023/09/18 03:46:04;;;;;;;8.40;6.97;;;;;;;;;;4937955;29;20184;-74
2023/09/18 03:49:11;;;;;;;9.87;7.53;;;;;;;;;;4936747;29;20181;-74
2023/09/18 03:52:16;;;;;;;8.03;7.13;;;;;;;;;;4926999;29;20589;-74
2023/09/18 03:55:20;;;;;;;9.97;7.23;;;;;;;;;;4937616;29;20192;-74
2023/09/18 03:58:24;;;;;;;14.53;7.90;;;;;;;;;;4926936;29;20180;-74
2023/09/18 04:01:29;;;;;;;11.20;7.37;;;;;;;;;;4937508;29;20580;-73
2023/09/18 04:04:32;;;;;;;13.57;7.90;;;;;;;;;;4937485;29;20223;-74
2023/09/18 04:07:37;;;;;;;10.43;6.90;;;;;;;;;;4937630;29;20535;-73
2023/09/18 04:10:41;;;;;;;8.73;6.57;;;;;;;;;;4937560;29;20668;-73
2023/09/18 04:13:45;;;;;;;6.73;6.13;;;;;;;;;;4937194;29;20678;-73
2023/09/18 04:16:50;;;;;;;11.53;7.30;;;;;;;;;;4926884;29;20189;-74
2023/09/18 04:19:54;;;;;;;47.93;9.33;;;;;;;;;;4937560;29;20191;-74
2023/09/18 04:23:18;;;;;;;16.67;8.17;;;;;;;;;;4937056;29;20229;-74
2023/09/18 04:26:22;;;;;;;13.50;7.67;;;;;;;;;;4937364;29;20190;-74
2023/09/18 04:29:26;;;;;;;9.07;6.77;;;;;;;;;;4937321;29;20193;-74
2023/09/18 04:32:30;;;;;;;19.83;6.97;;;;;;;;;;4926008;29;20220;-74
2023/09/18 04:35:35;;;;;;;12.77;8.00;;;;;;;;;;4926277;29;20192;-74
2023/09/18 04:38:39;;;;;;;11.03;7.87;;;;;;;;;;4936905;29;20195;-74
2023/09/18 04:41:43;;;;;;;10.90;7.50;;;;;;;;;;4926194;29;20228;-74
2023/09/18 04:44:48;;;;;;;10.60;7.60;;;;;;;;;;4937046;29;20220;-74
2023/09/18 04:47:56;;;;;;;24.73;8.47;;;;;;;;;;4937480;29;20195;-74
2023/09/18 04:51:01;;;;;;;18.83;7.17;;;;;;;;;;4936879;29;20556;-73
2023/09/18 04:54:06;;;;;;;12.03;6.70;;;;;;;;;;4926020;29;20191;-73
2023/09/18 04:57:10;;;;;;;14.80;7.07;;;;;;;;;;4937112;29;20184;-72
2023/09/18 05:00:16;;;;;;;8.63;7.20;;;;;;;;;;4936904;29;20176;-73
2023/09/18 05:03:21;;;;;;;15.13;7.87;;;;;;;;;;4925898;29;20220;-73
2023/09/18 05:06:25;;;;;;;11.40;7.80;;;;;;;;;;4937434;29;20192;-73
2023/09/18 05:09:29;;;;;;;11.17;8.37;;;;;;;;;;4937334;29;20184;-73
2023/09/18 05:12:34;;;;;;;14.10;9.47;;;;;;;;;;4936943;29;20227;-73
2023/09/18 05:15:38;;;;;;;12.60;9.23;;;;;;;;;;4936297;29;20187;-73
2023/09/18 05:18:42;;;;;;;16.80;9.43;;;;;;;;;;4936949;29;20196;-73
2023/09/18 05:21:46;;;;;;;10.63;8.93;;;;;;;;;;4937037;29;20250;-72
2023/09/18 05:24:51;;;;;;;10.57;8.77;;;;;;;;;;4937469;29;20220;-73
2023/09/18 05:27:57;;;;;;;58.87;10.37;;;;;;;;;;4936783;29;20188;-73
2023/09/18 05:31:01;;;;;;;31.13;9.97;;;;;;;;;;4936601;29;20195;-73
2023/09/18 05:34:05;;;;;;;17.90;8.83;;;;;;;;;;4936929;29;20192;-73
2023/09/18 05:37:10;;;;;;;13.63;7.93;;;;;;;;;;4936109;29;20548;-73
2023/09/18 05:40:14;;;;;;;12.27;8.90;;;;;;;;;;4936806;29;20184;-72
2023/09/18 05:43:18;;;;;;;14.93;8.23;;;;;;;;;;4936699;29;20180;-73
2023/09/18 05:46:22;;;;;;;14.97;8.77;;;;;;;;;;4935620;29;20659;-72
2023/09/18 05:49:27;;;;;;;13.30;7.97;;;;;;;;;;4936785;29;20191;-73
2023/09/18 05:52:30;;;;;;;13.87;7.37;;;;;;;;;;4936806;29;20239;-73
2023/09/18 05:55:35;;;;;;;20.77;8.43;;;;;;;;;;4936676;29;20536;-73
2023/09/18 05:58:39;;;;;;;11.03;8.97;;;;;;;;;;4936191;29;20188;-73
2023/09/18 06:01:43;;;;;;;9.53;7.67;;;;;;;;;;4936567;29;20223;-73
2023/09/18 06:04:47;;;;;;;9.97;7.67;;;;;;;;;;4935047;29;20208;-72
2023/09/18 06:07:53;;;;;;;10.77;7.97;;;;;;;;;;4936102;29;20188;-73
2023/09/18 06:10:57;;;;;;;14.47;8.50;;;;;;;;;;4935096;29;20548;-72
2023/09/18 06:14:01;;;;;;;11.83;8.80;;;;;;;;;;4934662;29;20181;-72
2023/09/18 06:17:06;;;;;;;21.70;13.80;;;;;;;;;;4935965;29;20176;-72
2023/09/18 06:20:15;;;;;;;35.10;17.23;;;;;;;;;;4936192;29;20187;-72
2023/09/18 06:23:19;;;;;;;34.00;14.77;;;;;;;;;;4935353;29;20655;-73
2023/09/18 06:26:24;;;;;;;21.77;13.10;;;;;;;;;;4936196;29;20655;-73
2023/09/18 06:29:27;;;;;;;56.03;11.97;;;;;;;;;;4936431;29;20195;-73
2023/09/18 06:32:32;;;;;;;32.13;10.63;;;;;;;;;;4935834;29;20234;-73
2023/09/18 06:35:37;;;;;;;14.03;10.10;;;;;;;;;;4936463;29;20192;-72
2023/09/18 06:38:41;;;;;;;17.00;10.17;;;;;;;;;;4936077;29;20191;-72
2023/09/18 06:41:44;;;;;;;18.13;10.10;;;;;;;;;;4934981;29;20222;-74
2023/09/18 06:44:50;;;;;;;14.40;10.27;;;;;;;;;;4935481;29;20219;-73
2023/09/18 06:47:55;;;;;;;16.37;11.73;;;;;;;;;;4936192;29;20257;-72
2023/09/18 06:51:02;;;;;;;21.17;11.47;;;;;;;;;;4935928;29;20195;-73
2023/09/18 06:54:07;;;;;;;18.50;13.27;;;;;;;;;;4935142;29;20191;-73
2023/09/18 06:57:11;;;;;;;53.10;16.40;;;;;;;;;;4936246;29;20207;-73
2023/09/18 07:00:18;;;;;;;27.03;14.10;;;;;;;;;;4935352;29;20195;-73
2023/09/18 07:03:23;;;;;;;20.47;12.30;;;;;;;;;;4936044;29;20191;-73
2023/09/18 07:06:27;;;;;;;20.37;13.03;;;;;;;;;;4935026;29;20180;-73
2023/09/18 07:09:31;;;;;;;11.43;10.23;;;;;;;;;;4936044;29;20652;-73
2023/09/18 07:12:36;;;;;;;13.03;9.67;;;;;;;;;;4935612;29;20742;-73
2023/09/18 07:15:41;;;;;;;10.33;8.57;;;;;;;;;;4935529;29;20196;-73
2023/09/18 07:18:45;;;;;;;107.67;13.67;;;;;;;;;;4935868;29;20544;-72
2023/09/18 07:21:49;;;;;;;14.23;8.23;;;;;;;;;;4935901;29;20240;-73
2023/09/18 07:24:53;;;;;;;41.90;9.00;;;;;;;;;;4936439;29;20212;-73
2023/09/18 07:27:57;;;;;;;10.03;8.10;;;;;;;;;;4939251;29;20265;-73
2023/09/18 07:31:06;;;;;;;14.07;9.83;;;;;;;;;;4939458;29;20196;-73
2023/09/18 07:34:10;;;;;;;14.37;11.60;;;;;;;;;;4927257;29;20191;-73
2023/09/18 07:37:20;;;;;;;9.50;8.40;;;;;;;;;;4939317;29;20540;-73
2023/09/18 07:40:24;;;;;;;7.77;6.97;;;;;;;;;;4939008;29;20181;-73
2023/09/18 07:43:28;;;;;;;12.93;7.10;;;;;;;;;;4938886;29;20194;-73
2023/09/18 07:46:33;;;;;;;7.97;7.17;;;;;;;;;;4939166;29;20190;-73
2023/09/18 07:49:37;;;;;;;9.77;8.00;;;;;;;;;;4938584;29;20523;-73
2023/09/18 07:52:41;;;;;;;23.00;8.07;;;;;;;;;;4937725;29;20220;-73
2023/09/18 07:55:45;;;;;;;7.90;7.10;;;;;;;;;;4938429;29;20189;-73
2023/09/18 07:58:49;;;;;;;7.43;6.57;;;;;;;;;;4938532;29;20191;-73
2023/09/18 08:01:54;;;;;;;7.40;6.67;;;;;;;;;;4938656;29;20581;-73
2023/09/18 08:04:58;;;;;;;9.30;6.60;;;;;;;;;;4937386;29;20228;-73
2023/09/18 08:08:05;;;;;;;7.30;6.50;;;;;;;;;;4938230;29;20184;-73
2023/09/18 08:11:09;;;;;;;7.60;6.80;;;;;;;;;;4937603;29;20577;-73
2023/09/18 08:14:13;;;;;;;13.10;6.80;;;;;;;;;;4938653;29;20184;-73
2023/09/18 08:17:17;;;;;;;6.80;5.80;;;;;;;;;;4938614;29;20199;-73
2023/09/18 08:20:21;;;;;;;10.70;6.93;;;;;;;;;;4938223;29;20190;-73
2023/09/18 08:23:25;;;;;;;86.47;9.97;;;;;;;;;;4937895;29;20185;-73
2023/09/18 08:26:29;;;;;;;10.47;6.30;;;;;;;;;;4938140;29;20186;-73
2023/09/18 08:29:34;;;;;;;10.17;5.63;;;;;;;;;;4938105;29;20547;-73
2023/09/18 08:32:38;;;;;;;8.40;5.80;;;;;;;;;;4937861;29;20233;-73
2023/09/18 08:35:44;;;;;;;13.87;6.30;;;;;;;;;;4937571;29;20179;-73
2023/09/18 08:38:48;;;;;;;10.07;5.63;;;;;;;;;;4937694;29;20654;-73
2023/09/18 08:41:57;;;;;;;8.10;5.80;;;;;;;;;;4936945;29;20227;-73
2023/09/18 08:45:08;;;;;;;8.57;5.87;;;;;;;;;;4938087;29;20209;-74
2023/09/18 08:48:13;;;;;;;6.57;5.72;;;;;;;;;;4937191;29;20637;-73
2023/09/18 08:51:18;;;;;;;11.25;5.25;;;;;;;;;;4936814;29;20692;-73
2023/09/18 08:54:25;;;;;;;8.80;4.53;;;;;;;;;;4937578;29;20183;-73
2023/09/18 08:57:30;;;;;;;6.28;4.35;;;;;;;;;;4937771;29;20187;-73
2023/09/18 09:00:37;;;;;;;6.75;3.88;;;;;;;;;;4937589;29;20190;-73
2023/09/18 09:03:42;;;;;;;7.85;3.90;;;;;;;;;;4937306;29;20187;-73
2023/09/18 09:06:46;;;;;;;10.07;4.50;;;;;;;;;;4936608;29;20643;-74
2023/09/18 09:09:50;;;;;;;6.30;4.40;;;;;;;;;;4937406;29;20185;-73
2023/09/18 09:12:57;;;;;;;19.20;5.50;;;;;;;;;;4936797;29;20235;-73
2023/09/18 09:16:02;;;;;;;13.68;6.15;;;;;;;;;;4936716;29;20181;-73
2023/09/18 09:19:07;;;;;;;9.82;4.25;;;;;;;;;;4937024;29;20197;-73
2023/09/18 09:22:20;;;;;;;7.68;3.40;;;;;;;;;;4936074;29;20222;-73
2023/09/18 09:25:28;;;;;;;13.02;3.63;;;;;;;;;;4937378;29;20220;-74
2023/09/18 09:28:33;;;;;;;12.90;3.38;;;;;;;;;;4937048;29;20187;-73
2023/09/18 09:31:37;;;;;;;16.02;4.07;;;;;;;;;;4936859;29;20230;-73
2023/09/18 09:34:42;;;;;;;15.73;4.35;;;;;;;;;;4936826;29;20548;-73
2023/09/18 09:37:46;;;;;;;12.85;3.70;;;;;;;;;;4936880;29;20191;-73
2023/09/18 09:40:51;;;;;;;12.57;4.13;;;;;;;;;;4935942;29;20186;-74
2023/09/18 09:43:56;;;;;;;12.35;4.10;;;;;;;;;;4936746;29;20191;-73
2023/09/18 09:47:00;;;;;;;8.55;3.83;;;;;;;;;;4935633;29;20186;-73
2023/09/18 09:50:13;;;;;;;9.00;4.03;;;;;;;;;;4936402;29;20535;-74
2023/09/18 09:53:18;;;;;;;6.18;3.60;;;;;;;;;;4936376;29;20177;-73
2023/09/18 09:56:22;;;;;;;142.85;9.90;;;;;;;;;;4936762;29;20183;-73
2023/09/18 09:59:27;;;;;;;12.30;3.95;;;;;;;;;;4936279;29;20194;-74
2023/09/18 10:02:35;;;;;;;13.43;4.28;;;;;;;;;;4936135;29;20253;-73
2023/09/18 10:05:41;;;;;;;8.40;3.65;;;;;;;;;;4936266;29;20240;-74
2023/09/18 10:08:46;;;;;;;10.45;3.70;;;;;;;;;;4935887;29;20185;-73
2023/09/18 10:11:53;;;;;;;7.75;3.40;;;;;;;;;;4936158;29;20251;-74
2023/09/18 10:14:57;;;;;;;10.35;4.00;;;;;;;;;;4936539;29;20182;-73
2023/09/18 10:18:03;;;;;;;8.70;3.35;;;;;;;;;;4936304;29;20194;-74
2023/09/18 10:21:31;;;;;;;6.30;3.20;;;;;;;;;;4935919;29;20223;-73
2023/09/18 10:24:37;;;;;;;8.38;3.65;;;;;;;;;;4935307;29;20181;-74
2023/09/18 10:27:43;;;;;;;10.65;3.90;;;;;;;;;;4936123;29;20180;-73
2023/09/18 10:30:47;;;;;;;6.55;3.53;;;;;;;;;;4936146;29;20639;-74
2023/09/18 10:33:53;;;;;;;8.40;3.83;;;;;;;;;;4936076;29;20185;-73
2023/09/18 10:36:57;;;;;;;8.93;3.00;;;;;;;;;;4936377;29;20632;-73
2023/09/18 10:40:02;;;;;;;7.70;3.40;;;;;;;;;;4936000;29;20191;-74
2023/09/18 10:43:09;;;;;;;6.75;3.10;;;;;;;;;;4935996;29;20587;-73
2023/09/18 10:46:14;;;;;;;9.38;3.42;;;;;;;;;;4935992;29;20219;-73
2023/09/18 10:49:18;;;;;;;7.80;3.30;;;;;;;;;;4936073;29;20188;-73
2023/09/18 10:52:23;;;;;;;9.43;2.95;;;;;;;;;;4935875;29;20216;-73
2023/09/18 10:55:27;;;;;;;7.55;3.00;;;;;;;;;;4935646;29;20177;-73
2023/09/18 10:58:35;;;;;;;8.00;3.35;;;;;;;;;;4935958;29;20637;-74
2023/09/18 11:01:39;;;;;;;8.32;2.83;;;;;;;;;;4939763;29;20704;-73
2023/09/18 11:04:44;;;;;;;5.72;2.42;;;;;;;;;;4939608;29;20183;-73
2023/09/18 11:07:48;;;;;;;10.73;2.65;;;;;;;;;;4939819;29;20185;-73
2023/09/18 11:10:59;;;;;;;15.35;3.40;;;;;;;;;;4939085;29;20194;-73
2023/09/18 11:14:11;;;;;;;5.10;2.80;;;;;;;;;;4939370;29;20187;-73
2023/09/18 11:17:28;;;;;;;8.18;2.63;;;;;;;;;;4939403;29;20187;-74
2023/09/18 11:20:32;;;;;;;6.65;2.50;;;;;;;;;;4939262;29;20187;-73
2023/09/18 11:23:42;;;;;;;9.00;2.60;;;;;;;;;;4938695;29;20625;-74
2023/09/18 11:26:48;;;;;;;8.75;2.38;;;;;;;;;;4939340;29;20210;-74
2023/09/18 11:29:56;;;;;;;14.27;2.95;;;;;;;;;;4938337;29;20189;-73
2023/09/18 11:33:01;;;;;;;6.18;2.42;;;;;;;;;;4938705;29;20314;-74
2023/09/18 11:36:14;;;;;;;17.00;2.63;;;;;;;;;;4938999;29;20182;-73
2023/09/18 11:39:38;;;;;;;9.60;2.28;;;;;;;;;;4938158;29;20189;-73
2023/09/18 11:43:16;;;;;;;9.75;2.47;;;;;;;;;;4938611;29;20211;-73
2023/09/18 11:46:21;;;;;;;16.52;2.67;;;;;;;;;;4938845;29;20205;-73
2023/09/18 11:49:27;;;;;;;211.57;12.57;;;;;;;;;;4938653;29;20202;-73
2023/09/18 11:52:34;;;;;;;10.90;2.13;;;;;;;;;;4938106;29;20231;-72
2023/09/18 11:55:39;;;;;;;8.13;1.83;;;;;;;;;;4938930;29;20190;-72
2023/09/18 11:58:48;;;;;;;8.30;2.30;;;;;;;;;;4938761;29;20186;-73
2023/09/18 12:01:54;;;;;;;6.93;2.22;;;;;;;;;;4938659;29;20555;-74
2023/09/18 12:04:58;;;;;;;17.02;2.10;;;;;;;;;;4938452;29;20183;-72
2023/09/18 12:08:03;;;;;;;5.20;1.67;;;;;;;;;;4937450;29;20189;-73
2023/09/18 12:11:07;;;;;;;6.75;1.83;;;;;;;;;;4937609;29;20222;-73
2023/09/18 12:14:14;;;;;;;7.60;2.13;;;;;;;;;;4938314;29;20181;-72
2023/09/18 12:17:18;;;;;;;7.03;1.90;;;;;;;;;;4938264;29;20177;-73
2023/09/18 12:20:22;;;;;;;10.05;1.63;;;;;;;;;;4937993;29;20189;-73
2023/09/18 12:23:27;;;;;;;12.37;1.90;;;;;;;;;;4938398;29;20196;-73
2023/09/18 12:26:31;;;;;;;7.20;1.60;;;;;;;;;;4938294;29;20242;-73
2023/09/18 12:29:35;;;;;;;8.20;1.57;;;;;;;;;;4937874;29;20186;-73
2023/09/18 12:32:39;;;;;;;6.73;1.77;;;;;;;;;;4937928;29;20224;-73
2023/09/18 12:35:43;;;;;;;61.40;4.10;;;;;;;;;;4926523;29;20185;-72
2023/09/18 12:38:57;;;;;;;13.57;2.17;;;;;;;;;;4936821;29;20190;-72
2023/09/18 12:42:01;;;;;;;7.27;1.60;;;;;;;;;;4936675;29;20221;-72
2023/09/18 12:45:10;;;;;;;19.43;1.67;;;;;;;;;;4937792;29;20639;-72
2023/09/18 12:48:14;;;;;;;4.77;1.40;;;;;;;;;;4937553;29;20183;-72
2023/09/18 12:51:22;;;;;;;6.13;1.80;;;;;;;;;;4925828;29;20226;-72
2023/09/18 12:54:40;;;;;;;9.30;1.60;;;;;;;;;;4937578;29;20191;-73
2023/09/18 12:57:44;;;;;;;6.73;1.47;;;;;;;;;;4937502;29;20182;-72
2023/09/18 13:00:50;;;;;;;6.60;1.63;;;;;;;;;;4937704;29;20193;-72
2023/09/18 13:03:59;;;;;;;6.77;1.90;;;;;;;;;;4937358;29;20190;-72
2023/09/18 13:07:12;;;;;;;12.73;2.20;;;;;;;;;;4937405;29;20212;-72
2023/09/18 13:10:16;;;;;;;7.27;1.80;;;;;;;;;;4937397;29;20189;-72
2023/09/18 13:13:22;;;;;;;6.93;1.70;;;;;;;;;;4937096;29;20208;-72
2023/09/18 13:16:27;;;;;;;4.93;1.73;;;;;;;;;;4936537;29;20184;-72
2023/09/18 13:19:31;;;;;;;6.90;1.70;;;;;;;;;;4937258;29;20189;-72
2023/09/18 13:22:35;;;;;;;9.87;1.93;;;;;;;;;;4937283;29;20223;-72
2023/09/18 13:25:44;;;;;;;4.83;1.57;;;;;;;;;;4937241;29;20184;-72
2023/09/18 13:28:48;;;;;;;8.70;1.50;;;;;;;;;;4937082;29;20184;-72
2023/09/18 13:31:52;;;;;;;6.43;1.40;;;;;;;;;;4936778;29;20223;-72
2023/09/18 13:34:56;;;;;;;5.83;1.43;;;;;;;;;;4936513;29;20185;-72
2023/09/18 13:38:00;;;;;;;3.47;1.40;;;;;;;;;;4936305;29;20616;-72
2023/09/18 13:41:05;;;;;;;7.00;1.70;;;;;;;;;;4936646;29;20187;-72
2023/09/18 13:44:09;;;;;;;5.60;1.30;;;;;;;;;;4935888;29;20640;-72
2023/09/18 13:47:13;;;;;;;4.93;1.60;;;;;;;;;;4935783;29;20211;-72
2023/09/18 13:50:17;;;;;;;2.33;1.00;;;;;;;;;;4936327;29;20532;-72
2023/09/18 13:53:22;;;;;;;5.13;1.30;;;;;;;;;;4936345;29;20188;-71
2023/09/18 13:56:27;;;;;;;2.50;1.20;;;;;;;;;;4936454;29;20180;-71
2023/09/18 13:59:31;;;;;;;6.23;1.80;;;;;;;;;;4935853;29;20192;-71
2023/09/18 14:02:35;;;;;;;3.57;1.23;;;;;;;;;;4936657;29;20215;-71
2023/09/18 14:05:39;;;;;;;3.50;1.10;;;;;;;;;;4935155;29;20525;-71
2023/09/18 14:08:43;;;;;;;3.47;1.20;;;;;;;;;;4936601;29;20522;-72
2023/09/18 14:11:48;;;;;;;6.57;1.40;;;;;;;;;;4935932;29;20227;-72
2023/09/18 14:14:52;;;;;;;2.70;1.30;;;;;;;;;;4936265;29;20621;-72
2023/09/18 14:17:56;;;;;;;3.13;1.40;;;;;;;;;;4936651;29;20176;-72
2023/09/18 14:21:01;;;;;;;2.17;1.30;;;;;;;;;;4935832;29;20180;-72
2023/09/18 14:24:05;;;;;;;4.73;1.40;;;;;;;;;;4936454;29;20521;-72
2023/09/18 14:27:12;;;;;;;4.93;1.80;;;;;;;;;;4934845;29;20204;-72
2023/09/18 14:30:16;;;;;;;3.17;1.80;;;;;;;;;;4936067;29;20188;-72
2023/09/18 14:33:20;;;;;;;6.50;1.73;;;;;;;;;;4937181;29;20188;-72
2023/09/18 14:36:24;;;;;;;5.13;1.63;;;;;;;;;;4942087;29;20175;-72
2023/09/18 14:39:29;;;;;;;3.20;1.30;;;;;;;;;;4942646;29;20184;-72
2023/09/18 14:42:33;;;;;;;2.53;1.20;;;;;;;;;;4942511;29;20224;-72
2023/09/18 14:45:38;;;;;;;4.07;1.23;;;;;;;;;;4942027;29;20510;-72
2023/09/18 14:48:41;;;;;;;4.60;1.70;;;;;;;;;;4942225;29;20184;-72
2023/09/18 14:51:46;;;;;;;2.50;1.33;;;;;;;;;;4941898;29;20227;-72
2023/09/18 14:54:51;;;;;;;4.97;1.60;;;;;;;;;;4942502;29;20525;-73
2023/09/18 14:57:55;;;;;;;3.63;1.47;;;;;;;;;;4942099;29;20225;-72
2023/09/18 15:01:00;;;;;;;3.03;1.53;;;;;;;;;;4942095;29;20180;-72
2023/09/18 15:04:04;;;;;;;3.67;1.50;;;;;;;;;;4941989;29;20529;-72
2023/09/18 15:07:08;;;;;;;1.97;1.43;;;;;;;;;;4942275;29;20545;-72
2023/09/18 15:10:12;;;;;;;1.30;1.20;;;;;;;;;;4941380;29;20179;-72
2023/09/18 15:13:17;;;;;;;10.63;1.83;;;;;;;;;;4941159;29;20203;-72
2023/09/18 15:16:21;;;;;;;2.17;1.50;;;;;;;;;;4942320;29;20184;-72
2023/09/18 15:19:25;;;;;;;5.93;1.37;;;;;;;;;;4941786;29;20188;-72
2023/09/18 15:22:29;;;;;;;5.17;1.40;;;;;;;;;;4930537;29;20699;-72
2023/09/18 15:25:55;;;;;;;2.97;1.40;;;;;;;;;;4941418;29;20551;-72
2023/09/18 15:28:59;;;;;;;12.03;1.57;;;;;;;;;;4941314;29;20180;-72
2023/09/18 15:32:04;;;;;;;2.57;1.40;;;;;;;;;;4941603;29;20718;-72
2023/09/18 15:35:10;;;;;;;1.57;1.10;;;;;;;;;;4941047;29;20184;-72
2023/09/18 15:38:14;;;;;;;2.47;1.30;;;;;;;;;;4941726;29;20188;-72
2023/09/18 15:41:18;;;;;;;3.63;1.40;;;;;;;;;;4942058;29;20219;-72
2023/09/18 15:44:22;;;;;;;2.50;1.50;;;;;;;;;;4941940;29;20525;-73
2023/09/18 15:47:26;;;;;;;4.20;1.40;;;;;;;;;;4938520;29;20216;-73
2023/09/18 15:50:32;;;;;;;6.07;1.50;;;;;;;;;;4937813;29;20189;-73
2023/09/18 15:53:36;;;;;;;2.20;1.33;;;;;;;;;;4938790;29;20188;-72
2023/09/18 15:56:40;;;;;;;4.23;1.70;;;;;;;;;;4937594;29;20184;-72
2023/09/18 15:59:44;;;;;;;3.10;1.30;;;;;;;;;;4938565;29;20188;-72
2023/09/18 16:02:50;;;;;;;1.70;1.30;;;;;;;;;;4937589;29;20219;-72
2023/09/18 16:05:55;;;;;;;3.80;1.50;;;;;;;;;;4938833;29;20180;-72
2023/09/18 16:09:01;;;;;;;3.43;1.47;;;;;;;;;;4938411;29;20176;-73
2023/09/18 16:12:06;;;;;;;2.37;1.20;;;;;;;;;;4938252;29;20219;-72
2023/09/18 16:15:10;;;;;;;2.23;1.20;;;;;;;;;;4938618;29;20193;-72
2023/09/18 16:18:14;;;;;;;4.60;1.57;;;;;;;;;;4938208;29;20184;-73
2023/09/18 16:21:18;;;;;;;3.57;1.23;;;;;;;;;;4937232;29;20695;-73
2023/09/18 16:24:24;;;;;;;2.73;1.67;;;;;;;;;;4938474;29;20631;-73
2023/09/18 16:27:28;;;;;;;4.10;1.30;;;;;;;;;;4937011;29;20208;-72
2023/09/18 16:30:33;;;;;;;5.53;1.70;;;;;;;;;;4937210;29;20529;-72
2023/09/18 16:33:37;;;;;;;3.77;1.80;;;;;;;;;;4937483;29;20188;-72
2023/09/18 16:36:42;;;;;;;5.33;1.97;;;;;;;;;;4937881;29;20184;-73
2023/09/18 16:39:46;;;;;;;4.37;1.70;;;;;;;;;;4937968;29;20513;-72
2023/09/18 16:42:50;;;;;;;3.77;1.70;;;;;;;;;;4937871;29;20224;-72
2023/09/18 16:45:54;;;;;;;4.70;1.70;;;;;;;;;;4937504;29;20632;-72
2023/09/18 16:48:58;;;;;;;3.23;1.70;;;;;;;;;;4937515;29;20521;-72
2023/09/18 16:52:04;;;;;;;3.27;2.10;;;;;;;;;;4936632;29;20208;-72
2023/09/18 16:55:08;;;;;;;3.53;1.70;;;;;;;;;;4937365;29;20192;-72
2023/09/18 16:58:12;;;;;;;3.07;1.80;;;;;;;;;;4936981;29;20180;-72
2023/09/18 17:01:16;;;;;;;2.43;1.80;;;;;;;;;;4937415;29;20247;-72
2023/09/18 17:04:20;;;;;;;4.97;1.90;;;;;;;;;;4937272;29;20545;-72
2023/09/18 17:07:26;;;;;;;3.40;1.60;;;;;;;;;;4937553;29;20216;-73
2023/09/18 17:10:30;;;;;;;5.10;1.73;;;;;;;;;;4937226;29;20193;-72
2023/09/18 17:13:34;;;;;;;5.47;2.00;;;;;;;;;;4936945;29;20211;-73
2023/09/18 17:16:39;;;;;;;5.90;1.90;;;;;;;;;;4937218;29;20188;-73
2023/09/18 17:19:43;;;;;;;5.07;1.63;;;;;;;;;;4937403;29;20184;-73
2023/09/18 17:22:47;;;;;;;4.57;2.20;;;;;;;;;;4937298;29;20216;-74
2023/09/18 17:25:52;;;;;;;3.97;1.70;;;;;;;;;;4937131;29;20184;-73
2023/09/18 17:28:56;;;;;;;4.40;1.63;;;;;;;;;;4936893;29;20215;-74
2023/09/18 17:32:02;;;;;;;6.90;1.90;;;;;;;;;;4936998;29;20224;-74
2023/09/18 17:35:07;;;;;;;2.83;1.63;;;;;;;;;;4935777;29;20304;-73
2023/09/18 17:38:12;;;;;;;5.03;1.63;;;;;;;;;;4936700;29;20541;-73
2023/09/18 17:41:17;;;;;;;5.30;1.63;;;;;;;;;;4936648;29;20227;-73
2023/09/18 17:44:21;;;;;;;5.33;1.77;;;;;;;;;;4925035;29;20188;-73
2023/09/18 17:47:26;;;;;;;2.97;1.40;;;;;;;;;;4936360;29;20216;-74
2023/09/18 17:50:30;;;;;;;2.60;1.40;;;;;;;;;;4936868;29;20184;-74
2023/09/18 17:53:34;;;;;;;2.83;1.40;;;;;;;;;;4924891;29;20180;-73
2023/09/18 17:56:38;;;;;;;3.07;1.53;;;;;;;;;;4936662;29;20525;-74
2023/09/18 17:59:43;;;;;;;3.30;1.20;;;;;;;;;;4936268;29;20541;-74
2023/09/18 18:02:47;;;;;;;4.63;1.27;;;;;;;;;;4936510;29;20223;-73
2023/09/18 18:05:52;;;;;;;1.30;1.13;;;;;;;;;;4936729;29;20184;-74
2023/09/18 18:08:55;;;;;;;1.67;1.03;;;;;;;;;;4935177;29;20549;-73
2023/09/18 18:12:00;;;;;;;2.53;1.20;;;;;;;;;;4935352;29;20227;-73
2023/09/18 18:15:05;;;;;;;3.27;1.27;;;;;;;;;;4935815;29;20180;-73
2023/09/18 18:18:11;;;;;;;1.83;1.10;;;;;;;;;;4936209;29;20180;-73
2023/09/18 18:21:16;;;;;;;2.93;1.30;;;;;;;;;;4935901;29;20699;-73
2023/09/18 18:24:21;;;;;;;5.23;1.47;;;;;;;;;;4935902;29;20525;-73